sensor_id;sensor_type;location;lat;lon;timestamp;temperature;humidity
70851;DHT22;58475;49.662;9.636;2023-08-30T00:00:07;13.48;98.77
70851;DHT22;58475;49.662;9.636;2023-08-30T00:02:33;13.25;99.44
70851;DHT22;58475;49.662;9.636;2023-08-30T00:04:59;13.14;99.49
70851;DHT22;58475;49.662;9.636;2023-08-30T00:07:25;13.30;99.17
70851;DHT22;58475;49.662;9.636;2023-08-30T00:09:51;13.35;99.14
70851;DHT22;58475;49.662;9.636;2023-08-30T00:12:17;13.49;99.69
70851;DHT22;58475;49.662;9.636;2023-08-30T00:14:42;13.51;99.72
70851;DHT22;58475;49.662;9.636;2023-08-30T00:17:08;13.59;99.31
70851;DHT22;58475;49.662;9.636;2023-08-30T00:19:34;13.59;99.17
70851;DHT22;58475;49.662;9.636;2023-08-30T00:21:59;13.65;98.92
70851;DHT22;58475;49.662;9.636;2023-08-30T00:24:24;13.59;98.92
70851;DHT22;58475;49.662;9.636;2023-08-30T00:26:50;13.54;99.06
70851;DHT22;58475;49.662;9.636;2023-08-30T00:29:15;13.47;98.90
70851;DHT22;58475;49.662;9.636;2023-08-30T00:31:41;13.51;99.25
70851;DHT22;58475;49.662;9.636;2023-08-30T00:34:06;13.45;99.52
70851;DHT22;58475;49.662;9.636;2023-08-30T00:36:32;13.48;99.40
70851;DHT22;58475;49.662;9.636;2023-08-30T00:38:57;13.48;99.55
70851;DHT22;58475;49.662;9.636;2023-08-30T00:41:23;13.57;99.46
70851;DHT22;58475;49.662;9.636;2023-08-30T00:43:49;13.34;99.20
70851;DHT22;58475;49.662;9.636;2023-08-30T00:46:15;13.30;99.99
70851;DHT22;58475;49.662;9.636;2023-08-30T00:48:41;13.32;99.85
70851;DHT22;58475;49.662;9.636;2023-08-30T00:51:08;13.27;99.53
70851;DHT22;58475;49.662;9.636;2023-08-30T00:53:33;13.34;99.85
70851;DHT22;58475;49.662;9.636;2023-08-30T00:55:59;13.30;99.99
70851;DHT22;58475;49.662;9.636;2023-08-30T00:58:25;13.35;99.58
70851;DHT22;58475;49.662;9.636;2023-08-30T01:00:52;13.41;99.90
70851;DHT22;58475;49.662;9.636;2023-08-30T01:03:18;13.28;99.60
70851;DHT22;58475;49.662;9.636;2023-08-30T01:05:45;13.25;99.72
70851;DHT22;58475;49.662;9.636;2023-08-30T01:08:11;13.47;99.99
70851;DHT22;58475;49.662;9.636;2023-08-30T01:13:30;13.35;98.89
70851;DHT22;58475;49.662;9.636;2023-08-30T01:15:57;13.35;99.18
70851;DHT22;58475;49.662;9.636;2023-08-30T01:18:26;13.28;99.77
70851;DHT22;58475;49.662;9.636;2023-08-30T01:20:54;13.25;99.35
70851;DHT22;58475;49.662;9.636;2023-08-30T01:26:31;13.20;99.40
70851;DHT22;58475;49.662;9.636;2023-08-30T01:29:00;12.87;99.64
70851;DHT22;58475;49.662;9.636;2023-08-30T01:31:27;13.18;99.79
70851;DHT22;58475;49.662;9.636;2023-08-30T01:33:56;13.15;98.92
70851;DHT22;58475;49.662;9.636;2023-08-30T01:36:22;13.25;99.16
70851;DHT22;58475;49.662;9.636;2023-08-30T01:38:49;13.21;99.27
70851;DHT22;58475;49.662;9.636;2023-08-30T01:41:15;13.08;99.45
70851;DHT22;58475;49.662;9.636;2023-08-30T01:43:42;13.01;99.60
70851;DHT22;58475;49.662;9.636;2023-08-30T01:46:08;13.10;99.67
70851;DHT22;58475;49.662;9.636;2023-08-30T01:48:37;12.91;99.63
70851;DHT22;58475;49.662;9.636;2023-08-30T01:51:03;12.87;99.99
70851;DHT22;58475;49.662;9.636;2023-08-30T01:53:30;12.81;99.72
70851;DHT22;58475;49.662;9.636;2023-08-30T01:55:57;12.89;99.99
70851;DHT22;58475;49.662;9.636;2023-08-30T01:58:24;12.86;99.99
70851;DHT22;58475;49.662;9.636;2023-08-30T02:00:49;12.91;99.99
70851;DHT22;58475;49.662;9.636;2023-08-30T02:03:15;12.89;99.86
70851;DHT22;58475;49.662;9.636;2023-08-30T02:05:52;12.96;99.76
70851;DHT22;58475;49.662;9.636;2023-08-30T02:08:22;12.75;99.96
70851;DHT22;58475;49.662;9.636;2023-08-30T02:10:53;12.73;99.99
70851;DHT22;58475;49.662;9.636;2023-08-30T02:13:25;12.76;99.99
70851;DHT22;58475;49.662;9.636;2023-08-30T02:15:55;12.83;99.90
70851;DHT22;58475;49.662;9.636;2023-08-30T02:18:23;12.87;99.99
70851;DHT22;58475;49.662;9.636;2023-08-30T02:20:55;12.75;99.90
70851;DHT22;58475;49.662;9.636;2023-08-30T02:23:25;12.84;99.65
70851;DHT22;58475;49.662;9.636;2023-08-30T02:25:50;12.72;99.99
70851;DHT22;58475;49.662;9.636;2023-08-30T02:28:16;12.76;99.99
70851;DHT22;58475;49.662;9.636;2023-08-30T02:30:41;12.90;99.99
70851;DHT22;58475;49.662;9.636;2023-08-30T02:33:07;12.91;99.80
70851;DHT22;58475;49.662;9.636;2023-08-30T02:35:32;12.80;99.51
70851;DHT22;58475;49.662;9.636;2023-08-30T02:37:58;12.75;99.77
70851;DHT22;58475;49.662;9.636;2023-08-30T02:40:23;12.75;99.67
70851;DHT22;58475;49.662;9.636;2023-08-30T02:42:49;12.63;99.70
70851;DHT22;58475;49.662;9.636;2023-08-30T02:45:14;12.76;99.50
70851;DHT22;58475;49.662;9.636;2023-08-30T02:47:40;12.63;99.55
70851;DHT22;58475;49.662;9.636;2023-08-30T02:50:05;12.75;99.86
70851;DHT22;58475;49.662;9.636;2023-08-30T02:52:33;12.76;99.88
70851;DHT22;58475;49.662;9.636;2023-08-30T02:54:58;12.62;99.84
70851;DHT22;58475;49.662;9.636;2023-08-30T02:57:24;12.70;99.50
70851;DHT22;58475;49.662;9.636;2023-08-30T02:59:49;12.52;99.61
70851;DHT22;58475;49.662;9.636;2023-08-30T03:02:17;12.63;99.52
70851;DHT22;58475;49.662;9.636;2023-08-30T03:04:42;12.55;99.40
70851;DHT22;58475;49.662;9.636;2023-08-30T03:07:09;12.69;99.79
70851;DHT22;58475;49.662;9.636;2023-08-30T03:09:34;12.66;99.94
70851;DHT22;58475;49.662;9.636;2023-08-30T03:12:00;12.73;99.99
70851;DHT22;58475;49.662;9.636;2023-08-30T03:14:26;12.76;99.99
70851;DHT22;58475;49.662;9.636;2023-08-30T03:16:51;12.76;99.64
70851;DHT22;58475;49.662;9.636;2023-08-30T03:19:16;12.69;99.90
70851;DHT22;58475;49.662;9.636;2023-08-30T03:21:44;12.67;99.76
70851;DHT22;58475;49.662;9.636;2023-08-30T03:24:10;12.60;99.61
70851;DHT22;58475;49.662;9.636;2023-08-30T03:26:35;12.53;99.76
70851;DHT22;58475;49.662;9.636;2023-08-30T03:29:01;12.53;99.99
70851;DHT22;58475;49.662;9.636;2023-08-30T03:31:26;12.69;99.67
70851;DHT22;58475;49.662;9.636;2023-08-30T03:33:52;12.60;99.80
70851;DHT22;58475;49.662;9.636;2023-08-30T03:36:18;12.72;99.98
70851;DHT22;58475;49.662;9.636;2023-08-30T03:38:45;12.75;99.99
70851;DHT22;58475;49.662;9.636;2023-08-30T03:41:11;12.76;99.99
70851;DHT22;58475;49.662;9.636;2023-08-30T03:43:37;12.80;99.99
70851;DHT22;58475;49.662;9.636;2023-08-30T03:46:02;12.60;99.80
70851;DHT22;58475;49.662;9.636;2023-08-30T03:48:29;12.81;99.75
70851;DHT22;58475;49.662;9.636;2023-08-30T03:50:56;12.90;99.26
70851;DHT22;58475;49.662;9.636;2023-08-30T03:53:22;12.81;99.06
70851;DHT22;58475;49.662;9.636;2023-08-30T03:55:48;12.76;99.52
70851;DHT22;58475;49.662;9.636;2023-08-30T03:58:13;12.75;99.03
70851;DHT22;58475;49.662;9.636;2023-08-30T04:00:39;12.77;99.62
70851;DHT22;58475;49.662;9.636;2023-08-30T04:03:07;12.93;99.27
70851;DHT22;58475;49.662;9.636;2023-08-30T04:05:34;12.93;99.19
70851;DHT22;58475;49.662;9.636;2023-08-30T04:08:04;12.90;98.62
70851;DHT22;58475;49.662;9.636;2023-08-30T04:10:40;12.79;99.20
70851;DHT22;58475;49.662;9.636;2023-08-30T04:13:07;12.87;99.33
70851;DHT22;58475;49.662;9.636;2023-08-30T04:15:34;12.86;99.06
70851;DHT22;58475;49.662;9.636;2023-08-30T04:18:01;12.90;99.22
70851;DHT22;58475;49.662;9.636;2023-08-30T04:20:26;12.69;98.82
70851;DHT22;58475;49.662;9.636;2023-08-30T04:22:52;12.43;99.40
70851;DHT22;58475;49.662;9.636;2023-08-30T04:25:20;12.60;99.40
70851;DHT22;58475;49.662;9.636;2023-08-30T04:27:46;12.52;99.50
70851;DHT22;58475;49.662;9.636;2023-08-30T04:30:12;12.52;99.69
70851;DHT22;58475;49.662;9.636;2023-08-30T04:32:38;12.63;99.45
70851;DHT22;58475;49.662;9.636;2023-08-30T04:35:04;12.77;99.21
70851;DHT22;58475;49.662;9.636;2023-08-30T04:37:32;12.62;99.14
70851;DHT22;58475;49.662;9.636;2023-08-30T04:39:58;12.63;99.38
70851;DHT22;58475;49.662;9.636;2023-08-30T04:42:24;12.56;99.48
70851;DHT22;58475;49.662;9.636;2023-08-30T04:44:51;12.43;99.53
70851;DHT22;58475;49.662;9.636;2023-08-30T04:47:16;12.48;99.32
70851;DHT22;58475;49.662;9.636;2023-08-30T04:49:43;12.57;99.27
70851;DHT22;58475;49.662;9.636;2023-08-30T04:52:08;12.48;99.33
70851;DHT22;58475;49.662;9.636;2023-08-30T04:54:35;12.63;99.49
70851;DHT22;58475;49.662;9.636;2023-08-30T04:57:01;12.79;99.13
70851;DHT22;58475;49.662;9.636;2023-08-30T04:59:26;12.70;98.76
70851;DHT22;58475;49.662;9.636;2023-08-30T05:01:52;12.72;99.45
70851;DHT22;58475;49.662;9.636;2023-08-30T05:04:19;12.69;98.90
70851;DHT22;58475;49.662;9.636;2023-08-30T05:06:44;12.66;99.30
70851;DHT22;58475;49.662;9.636;2023-08-30T05:09:10;12.64;99.21
70851;DHT22;58475;49.662;9.636;2023-08-30T05:11:35;12.75;99.55
70851;DHT22;58475;49.662;9.636;2023-08-30T05:14:01;12.66;99.16
70851;DHT22;58475;49.662;9.636;2023-08-30T05:16:26;12.69;99.24
70851;DHT22;58475;49.662;9.636;2023-08-30T05:18:52;12.75;99.13
70851;DHT22;58475;49.662;9.636;2023-08-30T05:21:17;12.79;99.33
70851;DHT22;58475;49.662;9.636;2023-08-30T05:23:43;12.86;99.36
70851;DHT22;58475;49.662;9.636;2023-08-30T05:26:10;12.90;99.00
70851;DHT22;58475;49.662;9.636;2023-08-30T05:28:39;13.03;98.80
70851;DHT22;58475;49.662;9.636;2023-08-30T05:31:06;12.81;98.90
70851;DHT22;58475;49.662;9.636;2023-08-30T05:33:59;12.87;98.45
70851;DHT22;58475;49.662;9.636;2023-08-30T05:36:48;12.91;99.07
70851;DHT22;58475;49.662;9.636;2023-08-30T05:39:24;13.01;98.69
70851;DHT22;58475;49.662;9.636;2023-08-30T05:41:55;13.03;98.47
70851;DHT22;58475;49.662;9.636;2023-08-30T05:44:20;12.90;98.94
70851;DHT22;58475;49.662;9.636;2023-08-30T05:46:46;12.90;98.93
70851;DHT22;58475;49.662;9.636;2023-08-30T05:49:17;13.12;99.22
70851;DHT22;58475;49.662;9.636;2023-08-30T05:51:44;13.07;98.89
70851;DHT22;58475;49.662;9.636;2023-08-30T05:54:09;13.10;99.17
70851;DHT22;58475;49.662;9.636;2023-08-30T05:56:35;13.01;98.57
70851;DHT22;58475;49.662;9.636;2023-08-30T05:59:00;12.91;98.87
70851;DHT22;58475;49.662;9.636;2023-08-30T06:01:26;12.93;99.47
70851;DHT22;58475;49.662;9.636;2023-08-30T06:03:51;13.07;99.24
70851;DHT22;58475;49.662;9.636;2023-08-30T06:06:17;13.03;98.86
70851;DHT22;58475;49.662;9.636;2023-08-30T06:08:42;12.97;99.10
70851;DHT22;58475;49.662;9.636;2023-08-30T06:11:08;12.99;98.92
70851;DHT22;58475;49.662;9.636;2023-08-30T06:13:34;13.07;98.12
70851;DHT22;58475;49.662;9.636;2023-08-30T06:15:59;13.17;97.99
70851;DHT22;58475;49.662;9.636;2023-08-30T06:18:29;13.25;98.23
70851;DHT22;58475;49.662;9.636;2023-08-30T06:20:54;13.31;97.93
70851;DHT22;58475;49.662;9.636;2023-08-30T06:23:20;13.47;98.21
70851;DHT22;58475;49.662;9.636;2023-08-30T06:25:55;13.48;98.06
70851;DHT22;58475;49.662;9.636;2023-08-30T06:28:21;13.61;97.98
70851;DHT22;58475;49.662;9.636;2023-08-30T06:30:47;13.54;97.85
70851;DHT22;58475;49.662;9.636;2023-08-30T06:33:12;13.59;98.41
70851;DHT22;58475;49.662;9.636;2023-08-30T06:35:38;13.73;98.36
70851;DHT22;58475;49.662;9.636;2023-08-30T06:38:05;13.68;97.94
70851;DHT22;58475;49.662;9.636;2023-08-30T06:40:30;13.76;97.45
70851;DHT22;58475;49.662;9.636;2023-08-30T06:42:56;13.79;97.47
70851;DHT22;58475;49.662;9.636;2023-08-30T06:45:22;13.75;97.70
70851;DHT22;58475;49.662;9.636;2023-08-30T06:47:51;13.83;98.08
70851;DHT22;58475;49.662;9.636;2023-08-30T06:50:19;13.98;97.79
70851;DHT22;58475;49.662;9.636;2023-08-30T06:52:45;14.12;97.38
70851;DHT22;58475;49.662;9.636;2023-08-30T06:55:10;14.23;96.44
70851;DHT22;58475;49.662;9.636;2023-08-30T06:57:36;14.34;96.56
70851;DHT22;58475;49.662;9.636;2023-08-30T07:00:02;14.36;96.70
70851;DHT22;58475;49.662;9.636;2023-08-30T07:02:37;14.51;97.07
70851;DHT22;58475;49.662;9.636;2023-08-30T07:05:03;14.65;96.59
70851;DHT22;58475;49.662;9.636;2023-08-30T07:07:30;14.52;96.63
70851;DHT22;58475;49.662;9.636;2023-08-30T07:09:56;14.54;97.21
70851;DHT22;58475;49.662;9.636;2023-08-30T07:12:22;14.74;96.44
70851;DHT22;58475;49.662;9.636;2023-08-30T07:14:47;14.81;95.81
70851;DHT22;58475;49.662;9.636;2023-08-30T07:17:13;14.88;96.30
70851;DHT22;58475;49.662;9.636;2023-08-30T07:19:38;15.09;96.32
70851;DHT22;58475;49.662;9.636;2023-08-30T07:22:04;14.91;95.98
70851;DHT22;58475;49.662;9.636;2023-08-30T07:24:29;14.64;95.79
70851;DHT22;58475;49.662;9.636;2023-08-30T07:26:55;14.85;97.02
70851;DHT22;58475;49.662;9.636;2023-08-30T07:29:21;15.05;96.60
70851;DHT22;58475;49.662;9.636;2023-08-30T07:31:47;15.09;97.05
70851;DHT22;58475;49.662;9.636;2023-08-30T07:34:12;15.12;95.75
70851;DHT22;58475;49.662;9.636;2023-08-30T07:36:38;15.33;95.99
70851;DHT22;58475;49.662;9.636;2023-08-30T07:39:03;15.33;95.08
70851;DHT22;58475;49.662;9.636;2023-08-30T07:41:29;15.40;95.51
70851;DHT22;58475;49.662;9.636;2023-08-30T07:43:54;15.46;95.87
70851;DHT22;58475;49.662;9.636;2023-08-30T07:46:20;15.39;95.05
70851;DHT22;58475;49.662;9.636;2023-08-30T07:48:45;15.29;95.73
70851;DHT22;58475;49.662;9.636;2023-08-30T07:51:11;15.46;95.23
70851;DHT22;58475;49.662;9.636;2023-08-30T07:53:36;15.50;95.26
70851;DHT22;58475;49.662;9.636;2023-08-30T07:56:02;15.70;94.70
70851;DHT22;58475;49.662;9.636;2023-08-30T07:58:28;15.84;94.56
70851;DHT22;58475;49.662;9.636;2023-08-30T08:00:56;16.11;95.41
70851;DHT22;58475;49.662;9.636;2023-08-30T08:03:21;16.33;94.49
70851;DHT22;58475;49.662;9.636;2023-08-30T08:05:47;16.24;94.02
70851;DHT22;58475;49.662;9.636;2023-08-30T08:08:13;16.21;93.86
70851;DHT22;58475;49.662;9.636;2023-08-30T08:10:40;16.72;92.49
70851;DHT22;58475;49.662;9.636;2023-08-30T08:13:06;16.94;91.52
70851;DHT22;58475;49.662;9.636;2023-08-30T08:15:32;17.47;91.82
70851;DHT22;58475;49.662;9.636;2023-08-30T08:17:59;17.59;90.28
70851;DHT22;58475;49.662;9.636;2023-08-30T08:20:25;17.51;89.38
70851;DHT22;58475;49.662;9.636;2023-08-30T08:22:51;17.28;88.70
70851;DHT22;58475;49.662;9.636;2023-08-30T08:25:17;17.51;88.88
70851;DHT22;58475;49.662;9.636;2023-08-30T08:27:42;17.96;88.52
70851;DHT22;58475;49.662;9.636;2023-08-30T08:30:08;18.06;86.82
70851;DHT22;58475;49.662;9.636;2023-08-30T08:32:35;18.23;85.85
70851;DHT22;58475;49.662;9.636;2023-08-30T08:35:01;18.30;86.54
70851;DHT22;58475;49.662;9.636;2023-08-30T08:37:28;18.34;84.84
70851;DHT22;58475;49.662;9.636;2023-08-30T08:39:54;18.61;84.76
70851;DHT22;58475;49.662;9.636;2023-08-30T08:42:20;18.51;84.26
70851;DHT22;58475;49.662;9.636;2023-08-30T08:44:53;17.99;84.68
70851;DHT22;58475;49.662;9.636;2023-08-30T08:47:20;18.43;85.11
70851;DHT22;58475;49.662;9.636;2023-08-30T08:49:50;18.64;83.62
70851;DHT22;58475;49.662;9.636;2023-08-30T08:52:16;18.17;85.70
70851;DHT22;58475;49.662;9.636;2023-08-30T08:54:43;18.55;83.77
70851;DHT22;58475;49.662;9.636;2023-08-30T08:57:09;18.44;83.45
70851;DHT22;58475;49.662;9.636;2023-08-30T08:59:35;18.10;84.85
70851;DHT22;58475;49.662;9.636;2023-08-30T09:02:04;18.36;84.23
70851;DHT22;58475;49.662;9.636;2023-08-30T09:04:31;18.78;83.19
70851;DHT22;58475;49.662;9.636;2023-08-30T09:06:58;18.36;83.83
70851;DHT22;58475;49.662;9.636;2023-08-30T09:09:25;18.00;85.67
70851;DHT22;58475;49.662;9.636;2023-08-30T09:11:51;18.27;84.65
70851;DHT22;58475;49.662;9.636;2023-08-30T09:14:18;18.63;84.33
70851;DHT22;58475;49.662;9.636;2023-08-30T09:16:57;18.47;84.54
70851;DHT22;58475;49.662;9.636;2023-08-30T09:19:23;18.63;83.46
70851;DHT22;58475;49.662;9.636;2023-08-30T09:21:59;18.94;84.27
70851;DHT22;58475;49.662;9.636;2023-08-30T09:24:36;18.53;83.75
70851;DHT22;58475;49.662;9.636;2023-08-30T09:27:03;18.51;84.10
70851;DHT22;58475;49.662;9.636;2023-08-30T09:29:29;18.94;85.23
70851;DHT22;58475;49.662;9.636;2023-08-30T09:31:55;18.96;84.19
70851;DHT22;58475;49.662;9.636;2023-08-30T09:34:24;18.94;83.99
70851;DHT22;58475;49.662;9.636;2023-08-30T09:36:54;18.67;83.01
70851;DHT22;58475;49.662;9.636;2023-08-30T09:39:20;18.74;82.26
70851;DHT22;58475;49.662;9.636;2023-08-30T09:41:50;18.63;82.97
70851;DHT22;58475;49.662;9.636;2023-08-30T09:44:19;18.54;82.28
70851;DHT22;58475;49.662;9.636;2023-08-30T09:46:54;18.51;82.31
70851;DHT22;58475;49.662;9.636;2023-08-30T09:49:21;18.57;82.25
70851;DHT22;58475;49.662;9.636;2023-08-30T09:51:48;18.89;81.08
70851;DHT22;58475;49.662;9.636;2023-08-30T09:54:16;19.20;79.74
70851;DHT22;58475;49.662;9.636;2023-08-30T09:56:42;19.71;79.61
70851;DHT22;58475;49.662;9.636;2023-08-30T09:59:12;20.11;75.90
70851;DHT22;58475;49.662;9.636;2023-08-30T10:01:40;19.78;77.91
70851;DHT22;58475;49.662;9.636;2023-08-30T10:04:09;20.51;77.89
70851;DHT22;58475;49.662;9.636;2023-08-30T10:06:37;20.53;76.22
70851;DHT22;58475;49.662;9.636;2023-08-30T10:09:03;20.69;75.99
70851;DHT22;58475;49.662;9.636;2023-08-30T10:11:33;20.93;75.51
70851;DHT22;58475;49.662;9.636;2023-08-30T10:14:00;20.92;74.18
70851;DHT22;58475;49.662;9.636;2023-08-30T10:16:26;20.82;74.46
70851;DHT22;58475;49.662;9.636;2023-08-30T10:19:02;21.34;73.95
70851;DHT22;58475;49.662;9.636;2023-08-30T10:21:29;21.27;73.89
70851;DHT22;58475;49.662;9.636;2023-08-30T10:23:56;21.28;72.43
70851;DHT22;58475;49.662;9.636;2023-08-30T10:26:24;21.59;74.40
70851;DHT22;58475;49.662;9.636;2023-08-30T10:28:55;21.28;71.95
70851;DHT22;58475;49.662;9.636;2023-08-30T10:31:22;21.79;70.98
70851;DHT22;58475;49.662;9.636;2023-08-30T10:33:52;21.82;72.41
70851;DHT22;58475;49.662;9.636;2023-08-30T10:36:25;21.93;70.02
70851;DHT22;58475;49.662;9.636;2023-08-30T10:38:54;21.89;73.09
70851;DHT22;58475;49.662;9.636;2023-08-30T10:41:21;21.65;70.83
70851;DHT22;58475;49.662;9.636;2023-08-30T10:43:50;21.96;70.49
70851;DHT22;58475;49.662;9.636;2023-08-30T10:46:17;22.29;69.99
70851;DHT22;58475;49.662;9.636;2023-08-30T10:48:42;21.92;70.00
70851;DHT22;58475;49.662;9.636;2023-08-30T10:51:39;21.95;70.40
70851;DHT22;58475;49.662;9.636;2023-08-30T10:54:12;21.88;69.39
70851;DHT22;58475;49.662;9.636;2023-08-30T10:59:17;22.36;68.94
70851;DHT22;58475;49.662;9.636;2023-08-30T11:01:44;21.62;69.14
70851;DHT22;58475;49.662;9.636;2023-08-30T11:04:10;22.23;69.87
70851;DHT22;58475;49.662;9.636;2023-08-30T11:06:45;22.35;68.92
70851;DHT22;58475;49.662;9.636;2023-08-30T11:09:22;22.14;68.23
70851;DHT22;58475;49.662;9.636;2023-08-30T11:11:50;21.85;69.30
70851;DHT22;58475;49.662;9.636;2023-08-30T11:14:17;22.22;68.63
70851;DHT22;58475;49.662;9.636;2023-08-30T11:16:43;22.26;67.53
70851;DHT22;58475;49.662;9.636;2023-08-30T11:19:10;22.08;68.51
70851;DHT22;58475;49.662;9.636;2023-08-30T11:21:38;21.88;68.26
70851;DHT22;58475;49.662;9.636;2023-08-30T11:24:04;22.26;67.57
70851;DHT22;58475;49.662;9.636;2023-08-30T11:26:30;22.51;68.14
70851;DHT22;58475;49.662;9.636;2023-08-30T11:28:56;22.49;67.78
70851;DHT22;58475;49.662;9.636;2023-08-30T11:31:22;22.47;66.28
70851;DHT22;58475;49.662;9.636;2023-08-30T11:33:56;22.29;67.36
70851;DHT22;58475;49.662;9.636;2023-08-30T11:36:25;22.26;67.71
70851;DHT22;58475;49.662;9.636;2023-08-30T11:38:52;22.06;66.28
70851;DHT22;58475;49.662;9.636;2023-08-30T11:41:20;22.43;64.10
70851;DHT22;58475;49.662;9.636;2023-08-30T11:43:45;21.82;65.52
70851;DHT22;58475;49.662;9.636;2023-08-30T11:46:12;22.13;64.47
70851;DHT22;58475;49.662;9.636;2023-08-30T11:48:39;22.56;65.61
70851;DHT22;58475;49.662;9.636;2023-08-30T11:51:05;22.70;64.93
70851;DHT22;58475;49.662;9.636;2023-08-30T11:53:32;22.68;63.83
70851;DHT22;58475;49.662;9.636;2023-08-30T11:55:57;22.68;64.65
70851;DHT22;58475;49.662;9.636;2023-08-30T11:58:23;22.72;64.33
70851;DHT22;58475;49.662;9.636;2023-08-30T12:00:52;22.39;61.70
70851;DHT22;58475;49.662;9.636;2023-08-30T12:03:22;23.02;63.99
70851;DHT22;58475;49.662;9.636;2023-08-30T12:05:49;22.87;63.42
70851;DHT22;58475;49.662;9.636;2023-08-30T12:08:23;22.91;65.18
70851;DHT22;58475;49.662;9.636;2023-08-30T12:10:49;22.80;64.22
70851;DHT22;58475;49.662;9.636;2023-08-30T12:13:29;23.12;64.54
70851;DHT22;58475;49.662;9.636;2023-08-30T12:15:57;22.30;61.51
70851;DHT22;58475;49.662;9.636;2023-08-30T12:18:27;23.09;62.74
70851;DHT22;58475;49.662;9.636;2023-08-30T12:23:23;23.16;63.42
70851;DHT22;58475;49.662;9.636;2023-08-30T12:26:04;23.42;63.01
70851;DHT22;58475;49.662;9.636;2023-08-30T12:28:31;23.37;62.57
70851;DHT22;58475;49.662;9.636;2023-08-30T12:30:58;23.33;61.34
70851;DHT22;58475;49.662;9.636;2023-08-30T12:33:24;23.01;62.03
70851;DHT22;58475;49.662;9.636;2023-08-30T12:35:56;23.00;61.41
70851;DHT22;58475;49.662;9.636;2023-08-30T12:38:22;22.84;61.51
70851;DHT22;58475;49.662;9.636;2023-08-30T12:40:50;23.18;63.12
70851;DHT22;58475;49.662;9.636;2023-08-30T12:43:17;23.09;60.51
70851;DHT22;58475;49.662;9.636;2023-08-30T12:45:43;23.83;60.14
70851;DHT22;58475;49.662;9.636;2023-08-30T12:48:10;23.66;58.58
70851;DHT22;58475;49.662;9.636;2023-08-30T12:50:37;23.63;61.05
70851;DHT22;58475;49.662;9.636;2023-08-30T12:53:03;23.41;59.77
70851;DHT22;58475;49.662;9.636;2023-08-30T12:55:29;23.93;61.20
70851;DHT22;58475;49.662;9.636;2023-08-30T12:57:55;23.74;58.41
70851;DHT22;58475;49.662;9.636;2023-08-30T13:00:21;22.68;60.80
70851;DHT22;58475;49.662;9.636;2023-08-30T13:02:46;22.98;61.48
70851;DHT22;58475;49.662;9.636;2023-08-30T13:05:12;22.43;60.89
70851;DHT22;58475;49.662;9.636;2023-08-30T13:07:37;22.43;60.90
70851;DHT22;58475;49.662;9.636;2023-08-30T13:10:05;22.80;63.08
70851;DHT22;58475;49.662;9.636;2023-08-30T13:12:31;22.98;63.36
70851;DHT22;58475;49.662;9.636;2023-08-30T13:14:56;23.73;59.65
70851;DHT22;58475;49.662;9.636;2023-08-30T13:17:22;23.70;58.23
70851;DHT22;58475;49.662;9.636;2023-08-30T13:19:47;23.90;59.34
70851;DHT22;58475;49.662;9.636;2023-08-30T13:22:13;23.43;57.89
70851;DHT22;58475;49.662;9.636;2023-08-30T13:24:38;23.02;61.79
70851;DHT22;58475;49.662;9.636;2023-08-30T13:27:04;23.05;59.88
70851;DHT22;58475;49.662;9.636;2023-08-30T13:29:29;22.98;59.26
70851;DHT22;58475;49.662;9.636;2023-08-30T13:31:55;23.14;59.91
70851;DHT22;58475;49.662;9.636;2023-08-30T13:34:21;23.11;58.94
70851;DHT22;58475;49.662;9.636;2023-08-30T13:36:46;23.39;57.93
70851;DHT22;58475;49.662;9.636;2023-08-30T13:39:12;23.80;58.33
70851;DHT22;58475;49.662;9.636;2023-08-30T13:41:37;23.71;58.97
70851;DHT22;58475;49.662;9.636;2023-08-30T13:44:03;23.66;57.18
70851;DHT22;58475;49.662;9.636;2023-08-30T13:46:31;23.83;57.49
70851;DHT22;58475;49.662;9.636;2023-08-30T13:48:57;23.28;58.29
70851;DHT22;58475;49.662;9.636;2023-08-30T13:51:23;23.01;59.14
70851;DHT22;58475;49.662;9.636;2023-08-30T13:53:50;23.15;58.83
70851;DHT22;58475;49.662;9.636;2023-08-30T13:56:16;23.49;59.04
70851;DHT22;58475;49.662;9.636;2023-08-30T13:58:41;23.73;59.61
70851;DHT22;58475;49.662;9.636;2023-08-30T14:01:07;22.80;60.54
70851;DHT22;58475;49.662;9.636;2023-08-30T14:03:33;22.35;59.48
70851;DHT22;58475;49.662;9.636;2023-08-30T14:05:58;22.22;60.76
70851;DHT22;58475;49.662;9.636;2023-08-30T14:08:24;22.05;60.08
70851;DHT22;58475;49.662;9.636;2023-08-30T14:10:49;22.86;61.25
70851;DHT22;58475;49.662;9.636;2023-08-30T14:13:15;22.56;58.99
70851;DHT22;58475;49.662;9.636;2023-08-30T14:15:41;22.17;60.32
70851;DHT22;58475;49.662;9.636;2023-08-30T14:18:07;22.05;60.68
70851;DHT22;58475;49.662;9.636;2023-08-30T14:20:33;22.05;60.02
70851;DHT22;58475;49.662;9.636;2023-08-30T14:22:58;21.92;60.27
70851;DHT22;58475;49.662;9.636;2023-08-30T14:25:24;21.72;58.43
70851;DHT22;58475;49.662;9.636;2023-08-30T14:27:49;22.10;60.40
70851;DHT22;58475;49.662;9.636;2023-08-30T14:30:17;21.79;58.58
70851;DHT22;58475;49.662;9.636;2023-08-30T14:32:43;21.88;59.00
70851;DHT22;58475;49.662;9.636;2023-08-30T14:35:09;22.49;56.96
70851;DHT22;58475;49.662;9.636;2023-08-30T14:37:34;22.75;59.04
70851;DHT22;58475;49.662;9.636;2023-08-30T14:40:02;23.28;56.28
70851;DHT22;58475;49.662;9.636;2023-08-30T14:42:29;23.15;57.21
70851;DHT22;58475;49.662;9.636;2023-08-30T14:44:55;22.57;57.11
70851;DHT22;58475;49.662;9.636;2023-08-30T14:47:20;22.29;58.52
70851;DHT22;58475;49.662;9.636;2023-08-30T14:49:46;22.30;59.14
70851;DHT22;58475;49.662;9.636;2023-08-30T14:52:13;22.20;58.15
70851;DHT22;58475;49.662;9.636;2023-08-30T14:54:38;21.81;58.62
70851;DHT22;58475;49.662;9.636;2023-08-30T14:57:04;21.83;58.58
70851;DHT22;58475;49.662;9.636;2023-08-30T14:59:29;21.69;60.06
70851;DHT22;58475;49.662;9.636;2023-08-30T15:01:55;21.44;60.67
70851;DHT22;58475;49.662;9.636;2023-08-30T15:04:20;21.35;60.84
70851;DHT22;58475;49.662;9.636;2023-08-30T15:06:46;21.44;62.58
70851;DHT22;58475;49.662;9.636;2023-08-30T15:09:14;21.45;61.64
70851;DHT22;58475;49.662;9.636;2023-08-30T15:11:42;21.33;62.34
70851;DHT22;58475;49.662;9.636;2023-08-30T15:14:08;21.41;60.16
70851;DHT22;58475;49.662;9.636;2023-08-30T15:16:34;21.38;60.50
70851;DHT22;58475;49.662;9.636;2023-08-30T15:18:59;21.47;60.29
70851;DHT22;58475;49.662;9.636;2023-08-30T15:21:25;21.52;60.93
70851;DHT22;58475;49.662;9.636;2023-08-30T15:23:50;21.38;61.52
70851;DHT22;58475;49.662;9.636;2023-08-30T15:26:16;21.37;61.82
70851;DHT22;58475;49.662;9.636;2023-08-30T15:28:43;21.20;60.64
70851;DHT22;58475;49.662;9.636;2023-08-30T15:31:15;21.17;60.80
70851;DHT22;58475;49.662;9.636;2023-08-30T15:33:42;21.19;61.47
70851;DHT22;58475;49.662;9.636;2023-08-30T15:36:07;21.26;62.50
70851;DHT22;58475;49.662;9.636;2023-08-30T15:38:33;21.21;61.02